LGL700 LEIB-ELLX
Flight info
| Callsign | LGL700 |
|---|---|
| Flight time | N/A |
| Altitude | 36000 |
| Route | EPAMA N856 EBROX DCT OLOXO DCT ROMAK DCT ENUPA DCT RLP G21 EPL/N0448F300 G21 GIVOR |
| Aircraft | B738/M-SDE2E3FGHIRWXY/LB1 |
Departure
| Time | N/A |
|---|---|
| Airport | Ibiza Airport (LEIB) |
Arrival
| Time | 2026-05-07 09:55 |
|---|---|
| Airport | Luxembourg-Findel International Airport (ELLX) |
| Time | Latitude | Longitude | Altitude | Speed | Heading |
|---|---|---|---|---|---|
| 2026-05-07 08:21 | 39.90742 | 1.33982 | 27292 ft | 472 kts | 349° |
| 2026-05-07 08:21 | 39.94019 | 1.33545 | 27612 ft | 474 kts | 349° |
| 2026-05-07 08:21 | 39.97305 | 1.33108 | 27890 ft | 476 kts | 349° |
| 2026-05-07 08:22 | 40.00616 | 1.32666 | 28169 ft | 479 kts | 349° |
| 2026-05-07 08:22 | 40.03933 | 1.32223 | 28483 ft | 481 kts | 349° |
| 2026-05-07 08:22 | 40.07215 | 1.31786 | 28881 ft | 480 kts | 349° |
| 2026-05-07 08:22 | 40.10505 | 1.31348 | 29279 ft | 479 kts | 349° |
| 2026-05-07 08:23 | 40.13816 | 1.30907 | 29673 ft | 478 kts | 349° |
| 2026-05-07 08:23 | 40.17119 | 1.30466 | 30040 ft | 477 kts | 348° |
| 2026-05-07 08:23 | 40.20428 | 1.30023 | 30382 ft | 477 kts | 348° |
| 2026-05-07 08:23 | 40.23733 | 1.29581 | 30743 ft | 477 kts | 348° |
| 2026-05-07 08:24 | 40.27024 | 1.29139 | 31112 ft | 476 kts | 348° |
| 2026-05-07 08:24 | 40.30316 | 1.28698 | 31460 ft | 475 kts | 348° |
| 2026-05-07 08:24 | 40.33596 | 1.28257 | 31804 ft | 474 kts | 348° |
| 2026-05-07 08:24 | 40.36835 | 1.27822 | 32138 ft | 473 kts | 348° |
| 2026-05-07 08:25 | 40.40109 | 1.27380 | 32414 ft | 474 kts | 348° |
| 2026-05-07 08:25 | 40.43397 | 1.26935 | 32693 ft | 474 kts | 348° |
| 2026-05-07 08:25 | 40.46668 | 1.26493 | 33070 ft | 472 kts | 348° |
| 2026-05-07 08:25 | 40.49933 | 1.26052 | 33440 ft | 470 kts | 348° |
| 2026-05-07 08:26 | 40.56432 | 1.25170 | 33982 ft | 470 kts | 347° |
| 2026-05-07 08:26 | 40.59688 | 1.24726 | 34241 ft | 470 kts | 347° |
| 2026-05-07 08:26 | 40.62937 | 1.24284 | 34525 ft | 469 kts | 347° |
| 2026-05-07 08:27 | 40.66186 | 1.23843 | 34792 ft | 469 kts | 347° |
| 2026-05-07 08:27 | 40.69389 | 1.23414 | 35027 ft | 470 kts | 349° |
| 2026-05-07 08:27 | 40.72684 | 1.23333 | 35246 ft | 478 kts | 359° |
| 2026-05-07 08:27 | 40.74455 | 1.23555 | 35381 ft | 480 kts | 0° |
| 2026-05-07 08:28 | 40.77777 | 1.24086 | 35614 ft | 481 kts | 1° |
| 2026-05-07 08:28 | 40.81102 | 1.24669 | 35817 ft | 482 kts | 2° |
| 2026-05-07 08:28 | 40.84423 | 1.25258 | 36021 ft | 482 kts | 2° |
| 2026-05-07 08:28 | 40.87763 | 1.25835 | 36009 ft | 486 kts | 1° |
| 2026-05-07 08:29 | 40.94465 | 1.26947 | 36017 ft | 489 kts | 1° |
| 2026-05-07 08:29 | 41.01197 | 1.28031 | 36013 ft | 486 kts | 1° |
| 2026-05-07 08:30 | 41.07887 | 1.29099 | 36017 ft | 483 kts | 1° |
| 2026-05-07 08:30 | 41.14551 | 1.30165 | 36019 ft | 481 kts | 1° |
| 2026-05-07 08:31 | 41.27287 | 1.32215 | 36019 ft | 480 kts | 1° |
| 2026-05-07 08:32 | 41.33911 | 1.33283 | 36025 ft | 480 kts | 1° |
| 2026-05-07 08:32 | 41.40501 | 1.34346 | 36016 ft | 481 kts | 1° |
| 2026-05-07 08:33 | 41.47140 | 1.35422 | 36022 ft | 481 kts | 1° |
| 2026-05-07 08:33 | 41.53783 | 1.36502 | 36021 ft | 481 kts | 1° |
| 2026-05-07 08:34 | 41.60437 | 1.37586 | 36035 ft | 481 kts | 1° |
| 2026-05-07 08:34 | 41.67087 | 1.38671 | 36027 ft | 482 kts | 1° |
| 2026-05-07 08:35 | 41.73709 | 1.39753 | 36030 ft | 482 kts | 1° |
| 2026-05-07 08:35 | 41.80371 | 1.40844 | 36028 ft | 482 kts | 1° |
| 2026-05-07 08:36 | 41.87030 | 1.41938 | 36031 ft | 482 kts | 1° |
| 2026-05-07 08:36 | 41.93682 | 1.43032 | 36037 ft | 482 kts | 1° |
| 2026-05-07 08:37 | 42.00286 | 1.44120 | 36047 ft | 481 kts | 1° |
| 2026-05-07 08:37 | 42.06933 | 1.45219 | 36038 ft | 481 kts | 1° |
| 2026-05-07 08:38 | 42.13563 | 1.46316 | 36045 ft | 479 kts | 1° |
| 2026-05-07 08:38 | 42.20179 | 1.47413 | 36055 ft | 478 kts | 1° |
| 2026-05-07 08:39 | 42.26731 | 1.48502 | 36046 ft | 477 kts | 1° |
| 2026-05-07 08:39 | 42.33316 | 1.49600 | 36053 ft | 476 kts | 1° |
| 2026-05-07 08:40 | 42.39884 | 1.50695 | 36043 ft | 475 kts | 1° |
| 2026-05-07 08:40 | 42.46403 | 1.52347 | 36058 ft | 482 kts | 12° |
| 2026-05-07 08:41 | 42.52754 | 1.55100 | 36053 ft | 483 kts | 14° |
| 2026-05-07 08:41 | 42.59128 | 1.57953 | 36041 ft | 482 kts | 13° |
| 2026-05-07 08:42 | 42.65516 | 1.60756 | 36039 ft | 483 kts | 13° |
| 2026-05-07 08:42 | 42.71915 | 1.63526 | 36033 ft | 482 kts | 13° |
| 2026-05-07 08:43 | 42.78301 | 1.66283 | 36053 ft | 480 kts | 13° |
| 2026-05-07 08:43 | 42.84623 | 1.69020 | 36052 ft | 480 kts | 13° |
| 2026-05-07 08:44 | 42.91002 | 1.71792 | 36028 ft | 481 kts | 13° |
| 2026-05-07 08:44 | 42.97384 | 1.74572 | 36053 ft | 481 kts | 13° |
| 2026-05-07 08:45 | 43.03764 | 1.77356 | 36038 ft | 482 kts | 13° |
| 2026-05-07 08:45 | 43.10110 | 1.80131 | 36028 ft | 482 kts | 13° |
| 2026-05-07 08:46 | 43.16485 | 1.82926 | 36029 ft | 480 kts | 13° |
| 2026-05-07 08:46 | 43.22837 | 1.85719 | 36027 ft | 480 kts | 13° |
| 2026-05-07 08:47 | 43.29189 | 1.88514 | 36051 ft | 478 kts | 13° |
| 2026-05-07 08:47 | 43.35514 | 1.91305 | 36031 ft | 477 kts | 13° |
| 2026-05-07 08:48 | 43.41788 | 1.94078 | 36047 ft | 476 kts | 13° |
| 2026-05-07 08:48 | 43.48088 | 1.96870 | 36034 ft | 475 kts | 14° |
| 2026-05-07 08:49 | 43.54369 | 1.99659 | 36039 ft | 474 kts | 14° |
| 2026-05-07 08:49 | 43.60643 | 2.02452 | 36041 ft | 473 kts | 14° |
| 2026-05-07 08:50 | 43.66857 | 2.05225 | 36040 ft | 473 kts | 14° |
| 2026-05-07 08:50 | 43.73108 | 2.08019 | 36050 ft | 472 kts | 14° |
| 2026-05-07 08:51 | 43.79357 | 2.10819 | 36046 ft | 472 kts | 14° |
| 2026-05-07 08:51 | 43.85602 | 2.13622 | 36048 ft | 471 kts | 14° |
| 2026-05-07 08:52 | 43.91796 | 2.16408 | 36046 ft | 471 kts | 14° |
| 2026-05-07 08:52 | 43.98037 | 2.19223 | 36038 ft | 471 kts | 14° |
| 2026-05-07 08:53 | 44.04274 | 2.22043 | 36034 ft | 472 kts | 14° |
| 2026-05-07 08:53 | 44.10516 | 2.24871 | 36036 ft | 472 kts | 14° |
| 2026-05-07 08:54 | 44.16719 | 2.27687 | 36021 ft | 472 kts | 14° |
| 2026-05-07 08:54 | 44.22961 | 2.30526 | 36023 ft | 472 kts | 14° |
| 2026-05-07 08:55 | 44.29202 | 2.33372 | 36031 ft | 472 kts | 14° |
| 2026-05-07 08:55 | 44.35452 | 2.36229 | 36023 ft | 472 kts | 14° |
| 2026-05-07 08:56 | 44.41699 | 2.39091 | 36015 ft | 473 kts | 14° |
| 2026-05-07 08:56 | 44.47896 | 2.41934 | 36023 ft | 472 kts | 14° |
| 2026-05-07 08:57 | 44.54135 | 2.44806 | 36019 ft | 472 kts | 14° |
| 2026-05-07 08:57 | 44.60373 | 2.47685 | 36020 ft | 472 kts | 14° |
| 2026-05-07 08:58 | 44.66597 | 2.50559 | 36019 ft | 471 kts | 14° |
| 2026-05-07 08:58 | 44.72829 | 2.53428 | 36015 ft | 472 kts | 14° |
| 2026-05-07 08:59 | 44.79018 | 2.56286 | 36017 ft | 471 kts | 14° |
| 2026-05-07 08:59 | 44.85243 | 2.59168 | 36015 ft | 471 kts | 14° |
| 2026-05-07 09:00 | 44.91469 | 2.62059 | 36012 ft | 471 kts | 14° |
| 2026-05-07 09:00 | 44.97684 | 2.64951 | 36016 ft | 470 kts | 14° |
| 2026-05-07 09:01 | 45.03858 | 2.67831 | 36010 ft | 469 kts | 15° |
| 2026-05-07 09:01 | 45.10042 | 2.70722 | 36029 ft | 468 kts | 15° |
| 2026-05-07 09:02 | 45.16226 | 2.73620 | 36027 ft | 467 kts | 15° |
| 2026-05-07 09:02 | 45.22396 | 2.76516 | 36024 ft | 466 kts | 15° |
| 2026-05-07 09:03 | 45.28549 | 2.79413 | 36024 ft | 465 kts | 15° |
| 2026-05-07 09:03 | 45.34688 | 2.82307 | 36032 ft | 465 kts | 15° |
| 2026-05-07 09:04 | 45.40780 | 2.85187 | 36038 ft | 465 kts | 15° |
| 2026-05-07 09:04 | 45.46924 | 2.88100 | 36034 ft | 465 kts | 15° |
| 2026-05-07 09:05 | 45.53062 | 2.91016 | 36035 ft | 465 kts | 15° |
| 2026-05-07 09:05 | 45.59199 | 2.93937 | 36055 ft | 465 kts | 15° |
| 2026-05-07 09:06 | 45.65331 | 2.96864 | 36044 ft | 465 kts | 15° |
| 2026-05-07 09:06 | 45.71423 | 2.99777 | 36040 ft | 465 kts | 15° |
| 2026-05-07 09:07 | 45.77556 | 3.02716 | 36041 ft | 465 kts | 15° |
| 2026-05-07 09:07 | 45.83686 | 3.05662 | 36050 ft | 465 kts | 15° |
| 2026-05-07 09:08 | 45.89816 | 3.08615 | 36050 ft | 465 kts | 15° |
| 2026-05-07 09:08 | 45.95905 | 3.11554 | 36055 ft | 465 kts | 15° |
| 2026-05-07 09:09 | 46.02046 | 3.14525 | 36042 ft | 465 kts | 15° |
| 2026-05-07 09:09 | 46.08175 | 3.17498 | 36051 ft | 465 kts | 16° |
| 2026-05-07 09:10 | 46.14310 | 3.20479 | 36036 ft | 465 kts | 16° |
| 2026-05-07 09:10 | 46.20392 | 3.23444 | 36050 ft | 464 kts | 16° |
| 2026-05-07 09:11 | 46.26505 | 3.26431 | 36042 ft | 464 kts | 16° |
| 2026-05-07 09:11 | 46.32609 | 3.29417 | 36039 ft | 463 kts | 16° |
| 2026-05-07 09:12 | 46.38704 | 3.32408 | 36051 ft | 462 kts | 16° |
| 2026-05-07 09:12 | 46.44794 | 3.35405 | 36050 ft | 462 kts | 16° |
| 2026-05-07 09:13 | 46.50842 | 3.38389 | 36051 ft | 462 kts | 16° |
| 2026-05-07 09:13 | 46.56922 | 3.41394 | 36044 ft | 462 kts | 16° |
| 2026-05-07 09:14 | 46.62973 | 3.44587 | 36033 ft | 464 kts | 24° |
| 2026-05-07 09:14 | 46.68320 | 3.49870 | 36052 ft | 469 kts | 41° |
| 2026-05-07 09:15 | 46.73001 | 3.56404 | 36052 ft | 470 kts | 42° |
| 2026-05-07 09:15 | 46.77692 | 3.63065 | 36054 ft | 472 kts | 42° |
| 2026-05-07 09:16 | 46.82427 | 3.69716 | 36057 ft | 474 kts | 41° |
| 2026-05-07 09:16 | 46.87201 | 3.76380 | 36043 ft | 475 kts | 41° |
| 2026-05-07 09:17 | 46.91949 | 3.83008 | 36052 ft | 476 kts | 41° |
| 2026-05-07 09:17 | 46.96733 | 3.89708 | 36048 ft | 477 kts | 42° |
| 2026-05-07 09:18 | 47.01520 | 3.96433 | 36037 ft | 477 kts | 42° |
| 2026-05-07 09:18 | 47.06299 | 4.03165 | 36045 ft | 476 kts | 42° |
| 2026-05-07 09:19 | 47.11059 | 4.09887 | 36043 ft | 474 kts | 42° |
| 2026-05-07 09:19 | 47.15774 | 4.16563 | 36048 ft | 473 kts | 42° |
| 2026-05-07 09:20 | 47.20499 | 4.23270 | 36039 ft | 472 kts | 42° |
| 2026-05-07 09:20 | 47.25212 | 4.29978 | 36051 ft | 470 kts | 42° |
| 2026-05-07 09:21 | 47.29901 | 4.36668 | 36038 ft | 469 kts | 43° |
| 2026-05-07 09:21 | 47.34545 | 4.43313 | 36043 ft | 468 kts | 43° |
| 2026-05-07 09:22 | 47.39212 | 4.50006 | 36049 ft | 467 kts | 43° |
| 2026-05-07 09:22 | 47.43859 | 4.56687 | 36045 ft | 467 kts | 43° |
| 2026-05-07 09:23 | 47.48504 | 4.63387 | 36055 ft | 467 kts | 43° |
| 2026-05-07 09:23 | 47.53121 | 4.70062 | 36044 ft | 467 kts | 43° |
| 2026-05-07 09:24 | 47.57773 | 4.76803 | 36052 ft | 469 kts | 43° |
| 2026-05-07 09:24 | 47.62435 | 4.83580 | 36044 ft | 470 kts | 43° |
| 2026-05-07 09:25 | 47.67104 | 4.90383 | 36052 ft | 471 kts | 43° |
| 2026-05-07 09:25 | 47.71777 | 4.97210 | 36052 ft | 472 kts | 43° |
| 2026-05-07 09:26 | 47.76424 | 5.04018 | 36047 ft | 472 kts | 43° |
| 2026-05-07 09:26 | 47.81098 | 5.10881 | 36055 ft | 472 kts | 43° |
| 2026-05-07 09:27 | 47.85772 | 5.17766 | 36047 ft | 473 kts | 43° |
| 2026-05-07 09:28 | 47.92605 | 5.28395 | 36059 ft | 474 kts | 51° |
| 2026-05-07 09:28 | 47.96570 | 5.36176 | 36051 ft | 475 kts | 53° |
| 2026-05-07 09:29 | 48.00507 | 5.44082 | 36050 ft | 474 kts | 52° |
| 2026-05-07 09:29 | 48.04477 | 5.51921 | 36050 ft | 473 kts | 52° |
| 2026-05-07 09:30 | 48.08468 | 5.59742 | 36048 ft | 472 kts | 52° |
| 2026-05-07 09:30 | 48.12417 | 5.67491 | 36052 ft | 471 kts | 52° |
| 2026-05-07 09:30 | 48.14405 | 5.71402 | 35735 ft | 476 kts | 52° |
| 2026-05-07 09:31 | 48.16402 | 5.75339 | 35271 ft | 473 kts | 52° |
| 2026-05-07 09:31 | 48.18393 | 5.79270 | 34636 ft | 473 kts | 52° |
| 2026-05-07 09:31 | 48.20377 | 5.83194 | 33976 ft | 473 kts | 52° |
| 2026-05-07 09:31 | 48.22363 | 5.87127 | 33291 ft | 473 kts | 52° |
| 2026-05-07 09:32 | 48.24345 | 5.91057 | 32581 ft | 473 kts | 52° |
| 2026-05-07 09:32 | 48.26326 | 5.94993 | 31853 ft | 472 kts | 52° |
| 2026-05-07 09:32 | 48.28301 | 5.98922 | 31103 ft | 471 kts | 52° |
| 2026-05-07 09:32 | 48.30284 | 6.02822 | 30359 ft | 469 kts | 50° |
| 2026-05-07 09:33 | 48.32487 | 6.06299 | 29848 ft | 462 kts | 41° |
| 2026-05-07 09:33 | 48.35003 | 6.09221 | 29307 ft | 455 kts | 32° |
| 2026-05-07 09:33 | 48.37656 | 6.11753 | 28774 ft | 449 kts | 31° |
| 2026-05-07 09:33 | 48.40286 | 6.14229 | 28234 ft | 444 kts | 31° |
| 2026-05-07 09:34 | 48.42880 | 6.16684 | 27698 ft | 439 kts | 32° |
| 2026-05-07 09:34 | 48.45441 | 6.19134 | 27172 ft | 434 kts | 32° |
| 2026-05-07 09:34 | 48.47971 | 6.21578 | 26642 ft | 430 kts | 32° |
| 2026-05-07 09:34 | 48.50471 | 6.24007 | 26120 ft | 425 kts | 32° |
| 2026-05-07 09:35 | 48.52912 | 6.26389 | 25606 ft | 421 kts | 32° |
| 2026-05-07 09:35 | 48.55363 | 6.28782 | 25094 ft | 418 kts | 32° |
| 2026-05-07 09:35 | 48.57791 | 6.31156 | 24572 ft | 414 kts | 32° |
| 2026-05-07 09:35 | 48.60199 | 6.33511 | 24080 ft | 411 kts | 32° |
| 2026-05-07 09:36 | 48.62592 | 6.35854 | 23566 ft | 408 kts | 32° |
| 2026-05-07 09:36 | 48.64965 | 6.38175 | 23067 ft | 405 kts | 31° |
| 2026-05-07 09:36 | 48.67495 | 6.39946 | 22532 ft | 400 kts | 14° |
| 2026-05-07 09:36 | 48.70170 | 6.40965 | 22084 ft | 395 kts | 13° |
| 2026-05-07 09:37 | 48.72793 | 6.41962 | 21590 ft | 392 kts | 13° |
| 2026-05-07 09:37 | 48.75424 | 6.42982 | 21099 ft | 389 kts | 13° |
| 2026-05-07 09:37 | 48.78039 | 6.44013 | 20612 ft | 387 kts | 13° |
| 2026-05-07 09:37 | 48.80634 | 6.45050 | 20117 ft | 384 kts | 14° |
| 2026-05-07 09:38 | 48.83207 | 6.46085 | 19642 ft | 381 kts | 14° |
| 2026-05-07 09:38 | 48.85762 | 6.47119 | 19163 ft | 379 kts | 14° |
| 2026-05-07 09:38 | 48.88296 | 6.48147 | 18683 ft | 376 kts | 14° |
| 2026-05-07 09:38 | 48.90814 | 6.49171 | 18215 ft | 373 kts | 14° |
| 2026-05-07 09:39 | 48.93318 | 6.50189 | 17739 ft | 371 kts | 14° |
| 2026-05-07 09:39 | 48.95766 | 6.51186 | 17278 ft | 368 kts | 14° |
| 2026-05-07 09:39 | 48.98234 | 6.52191 | 16812 ft | 366 kts | 14° |
| 2026-05-07 09:39 | 49.00682 | 6.53190 | 16352 ft | 363 kts | 14° |
| 2026-05-07 09:40 | 49.03114 | 6.54183 | 15888 ft | 361 kts | 14° |
| 2026-05-07 09:40 | 49.05533 | 6.55172 | 15434 ft | 358 kts | 14° |
| 2026-05-07 09:40 | 49.07931 | 6.56153 | 14981 ft | 356 kts | 14° |
| 2026-05-07 09:40 | 49.10316 | 6.57129 | 14528 ft | 354 kts | 13° |
| 2026-05-07 09:41 | 49.12687 | 6.58100 | 14078 ft | 352 kts | 13° |
| 2026-05-07 09:41 | 49.15047 | 6.59068 | 13624 ft | 350 kts | 13° |
| 2026-05-07 09:41 | 49.17392 | 6.60031 | 13175 ft | 348 kts | 13° |
| 2026-05-07 09:41 | 49.19722 | 6.60990 | 12727 ft | 346 kts | 13° |
| 2026-05-07 09:42 | 49.22019 | 6.61806 | 12280 ft | 342 kts | 4° |
| 2026-05-07 09:42 | 49.24347 | 6.61454 | 11873 ft | 335 kts | 342° |
| 2026-05-07 09:42 | 49.26503 | 6.60185 | 11453 ft | 332 kts | 334° |
| 2026-05-07 09:42 | 49.28594 | 6.58710 | 11096 ft | 328 kts | 333° |
| 2026-05-07 09:43 | 49.30607 | 6.57237 | 11036 ft | 314 kts | 333° |
| 2026-05-07 09:43 | 49.32540 | 6.55826 | 10777 ft | 307 kts | 333° |
| 2026-05-07 09:43 | 49.34443 | 6.54424 | 10589 ft | 299 kts | 333° |
| 2026-05-07 09:43 | 49.36285 | 6.53056 | 10439 ft | 287 kts | 333° |
| 2026-05-07 09:44 | 49.38049 | 6.51743 | 10293 ft | 277 kts | 333° |
| 2026-05-07 09:44 | 49.39744 | 6.50474 | 10190 ft | 276 kts | 333° |
| 2026-05-07 09:44 | 49.41486 | 6.49165 | 10094 ft | 282 kts | 333° |
| 2026-05-07 09:44 | 49.43264 | 6.47823 | 9843 ft | 286 kts | 333° |
| 2026-05-07 09:45 | 49.45047 | 6.46473 | 9553 ft | 284 kts | 333° |
| 2026-05-07 09:45 | 49.46807 | 6.45135 | 9260 ft | 281 kts | 333° |
| 2026-05-07 09:45 | 49.48503 | 6.43680 | 8942 ft | 279 kts | 320° |
| 2026-05-07 09:45 | 49.49577 | 6.41269 | 8491 ft | 276 kts | 286° |
| 2026-05-07 09:46 | 49.49574 | 6.38372 | 8132 ft | 274 kts | 255° |
| 2026-05-07 09:46 | 49.49089 | 6.35555 | 7854 ft | 272 kts | 260° |
| 2026-05-07 09:46 | 49.48788 | 6.32723 | 7568 ft | 273 kts | 263° |
| 2026-05-07 09:46 | 49.48528 | 6.29820 | 7283 ft | 275 kts | 263° |
| 2026-05-07 09:47 | 49.48282 | 6.26904 | 6982 ft | 275 kts | 264° |
| 2026-05-07 09:47 | 49.48042 | 6.23999 | 6697 ft | 273 kts | 264° |
| 2026-05-07 09:47 | 49.47805 | 6.21110 | 6419 ft | 272 kts | 264° |
| 2026-05-07 09:47 | 49.47569 | 6.18233 | 6138 ft | 271 kts | 264° |
| 2026-05-07 09:48 | 49.47336 | 6.15374 | 5864 ft | 269 kts | 264° |
| 2026-05-07 09:48 | 49.47102 | 6.12526 | 5633 ft | 266 kts | 264° |
| 2026-05-07 09:48 | 49.46871 | 6.09739 | 5485 ft | 259 kts | 264° |
| 2026-05-07 09:48 | 49.46649 | 6.07074 | 5355 ft | 244 kts | 264° |
| 2026-05-07 09:49 | 49.46650 | 6.04568 | 5240 ft | 226 kts | 288° |
| 2026-05-07 09:49 | 49.47382 | 6.02605 | 5068 ft | 209 kts | 312° |
| 2026-05-07 09:49 | 49.48451 | 6.01228 | 4862 ft | 196 kts | 330° |
| 2026-05-07 09:49 | 49.49607 | 6.00233 | 4656 ft | 187 kts | 330° |
| 2026-05-07 09:50 | 49.50742 | 5.99248 | 4495 ft | 188 kts | 330° |
| 2026-05-07 09:50 | 49.51887 | 5.98281 | 4294 ft | 187 kts | 336° |
| 2026-05-07 09:50 | 49.53136 | 5.98179 | 4163 ft | 183 kts | 23° |
| 2026-05-07 09:50 | 49.54119 | 5.99434 | 4011 ft | 189 kts | 46° |
| 2026-05-07 09:51 | 49.54966 | 6.01034 | 3756 ft | 194 kts | 51° |
| 2026-05-07 09:51 | 49.55756 | 6.02702 | 3506 ft | 192 kts | 54° |
| 2026-05-07 09:51 | 49.56456 | 6.04433 | 3243 ft | 188 kts | 58° |
| 2026-05-07 09:51 | 49.57090 | 6.06131 | 2993 ft | 177 kts | 59° |
| 2026-05-07 09:52 | 49.57667 | 6.07701 | 2760 ft | 166 kts | 58° |
| 2026-05-07 09:52 | 49.58234 | 6.09232 | 2557 ft | 164 kts | 58° |
| 2026-05-07 09:52 | 49.58777 | 6.10704 | 2351 ft | 153 kts | 58° |
| 2026-05-07 09:52 | 49.59290 | 6.12092 | 2144 ft | 146 kts | 58° |
| 2026-05-07 09:53 | 49.59790 | 6.13444 | 1964 ft | 146 kts | 58° |
| 2026-05-07 09:53 | 49.60282 | 6.14834 | 1750 ft | 148 kts | 59° |
| 2026-05-07 09:53 | 49.60618 | 6.15749 | 1606 ft | 147 kts | 58° |
| 2026-05-07 09:53 | 49.61138 | 6.17095 | 1408 ft | 144 kts | 59° |
| 2026-05-07 09:54 | 49.61805 | 6.18901 | 1182 ft | 147 kts | 58° |
| 2026-05-07 09:54 | 49.62259 | 6.20113 | 1225 ft | 114 kts | 61° |
| 2026-05-07 09:54 | 49.62589 | 6.21005 | 1242 ft | 70 kts | 60° |
| 2026-05-07 09:54 | 49.62803 | 6.21578 | 1229 ft | 59 kts | 60° |
| 2026-05-07 09:55 | 49.62978 | 6.22049 | 1223 ft | 28 kts | 60° |
| 2026-05-07 09:55 | 49.63036 | 6.22130 | 1222 ft | 17 kts | 1° |
| 2026-05-07 09:55 | 49.63138 | 6.22058 | 1231 ft | 16 kts | 329° |
| 2026-05-07 09:55 | 49.63180 | 6.21926 | 1243 ft | 14 kts | 294° |
| 2026-05-07 09:56 | 49.63243 | 6.21856 | 1237 ft | 8 kts | 331° |
| 2026-05-07 09:56 | 49.63293 | 6.21814 | 1240 ft | 8 kts | 331° |
| 2026-05-07 09:56 | 49.63339 | 6.21766 | 1237 ft | 8 kts | 324° |
| 2026-05-07 09:56 | 49.63365 | 6.21743 | 1237 ft | 3 kts | 330° |
| 2026-05-07 09:57 | 49.63370 | 6.21738 | 1237 ft | 0 kts | 330° |